createdAt,value
2018-07-06T00:04:52.791Z,91
2018-07-06T00:09:52.690Z,91
2018-07-06T00:14:53.059Z,90
2018-07-06T00:19:52.822Z,90
2018-07-06T00:24:52.734Z,89
2018-07-06T00:29:53.463Z,89
2018-07-06T00:34:52.587Z,89
2018-07-06T00:39:53.413Z,89
2018-07-06T00:44:52.882Z,88
2018-07-06T00:49:53.366Z,88
2018-07-06T00:54:53.107Z,88
2018-07-06T00:59:53.348Z,88
2018-07-06T01:04:52.911Z,88
2018-07-06T01:09:52.725Z,88
2018-07-06T01:14:53.135Z,87
2018-07-06T01:19:53.009Z,87
2018-07-06T01:24:53.190Z,87
2018-07-06T01:29:53.362Z,87
2018-07-06T01:34:53.205Z,87
2018-07-06T01:39:53.404Z,87
2018-07-06T01:44:53.201Z,87
2018-07-06T01:49:52.788Z,87
2018-07-06T01:54:53.433Z,87
2018-07-06T01:59:53.126Z,87
2018-07-06T02:04:53.299Z,86
2018-07-06T02:09:53.364Z,86
2018-07-06T02:14:53.024Z,86
2018-07-06T02:19:52.815Z,86
2018-07-06T02:24:53.576Z,86
2018-07-06T02:29:53.268Z,86
2018-07-06T02:34:52.912Z,86
2018-07-06T02:39:53.672Z,86
2018-07-06T02:44:53.358Z,86
2018-07-06T02:49:53.590Z,86
2018-07-06T02:54:52.908Z,86
2018-07-06T02:59:53.507Z,86
2018-07-06T03:04:53.303Z,86
2018-07-06T03:09:53.129Z,86
2018-07-06T03:14:53.020Z,87
2018-07-06T03:19:52.749Z,87
2018-07-06T03:24:53.450Z,87
2018-07-06T03:29:53.101Z,87
2018-07-06T03:34:53.538Z,87
2018-07-06T03:39:53.217Z,87
2018-07-06T03:44:52.942Z,88
2018-07-06T03:49:53.721Z,88
2018-07-06T03:54:53.588Z,88
2018-07-06T03:59:53.329Z,88
2018-07-06T04:04:53.308Z,89
2018-07-06T04:09:53.531Z,89
2018-07-06T04:14:53.303Z,89
2018-07-06T04:19:53.156Z,89
2018-07-06T04:24:52.910Z,89
2018-07-06T04:29:52.767Z,89
2018-07-06T04:34:53.107Z,90
2018-07-06T04:39:53.768Z,90
2018-07-06T04:44:53.471Z,90
2018-07-06T04:49:53.302Z,90
2018-07-06T04:54:53.146Z,90
2018-07-06T04:59:52.910Z,90
2018-07-06T05:04:53.257Z,91
2018-07-06T05:09:53.077Z,91
2018-07-06T05:14:53.206Z,91
2018-07-06T05:19:53.079Z,91
2018-07-06T05:24:53.816Z,91
2018-07-06T05:29:53.754Z,91
2018-07-06T05:34:53.701Z,92
2018-07-06T05:39:53.466Z,92
2018-07-06T05:44:53.310Z,92
2018-07-06T05:49:53.077Z,92
2018-07-06T05:54:52.902Z,92
2018-07-06T05:59:53.101Z,92
2018-07-06T06:04:53.952Z,92
2018-07-06T06:09:53.192Z,92
2018-07-06T06:14:53.066Z,92
2018-07-06T06:19:53.860Z,92
2018-07-06T06:24:53.282Z,93
2018-07-06T06:29:52.945Z,93
2018-07-06T06:34:53.932Z,93
2018-07-06T06:39:53.614Z,93
2018-07-06T06:44:53.291Z,93
2018-07-06T06:49:53.146Z,93
2018-07-06T06:54:53.174Z,93
2018-07-06T06:59:53.861Z,93
2018-07-06T07:04:53.760Z,93
2018-07-06T07:09:53.390Z,93
2018-07-06T07:14:53.225Z,93
2018-07-06T07:19:53.014Z,93
2018-07-06T07:24:53.784Z,93
2018-07-06T07:29:53.533Z,93
2018-07-06T07:34:53.540Z,94
2018-07-06T07:39:53.345Z,94
2018-07-06T07:44:53.040Z,93
2018-07-06T07:49:53.974Z,93
2018-07-06T07:54:53.089Z,93
2018-07-06T07:59:53.913Z,93
2018-07-06T08:04:53.823Z,93
2018-07-06T08:09:53.789Z,93
2018-07-06T08:14:53.821Z,93
2018-07-06T08:19:53.780Z,93
2018-07-06T08:24:53.630Z,93
2018-07-06T08:29:53.360Z,93
2018-07-06T08:34:53.155Z,92
2018-07-06T08:39:53.963Z,92
2018-07-06T08:44:53.795Z,90
2018-07-06T08:49:53.554Z,90
2018-07-06T08:54:53.523Z,86
2018-07-06T08:59:53.134Z,86
2018-07-06T09:04:53.925Z,77
2018-07-06T09:09:53.704Z,77
2018-07-06T09:14:53.586Z,74
2018-07-06T09:19:53.917Z,74
2018-07-06T09:24:53.774Z,71
2018-07-06T09:29:53.570Z,71
2018-07-06T09:34:53.480Z,68
2018-07-06T09:39:53.475Z,68
2018-07-06T09:44:53.576Z,62
2018-07-06T09:49:53.516Z,62
2018-07-06T09:54:53.584Z,61
2018-07-06T09:59:53.405Z,61
2018-07-06T10:04:54.328Z,58
2018-07-06T10:09:53.232Z,58
2018-07-06T10:14:53.991Z,56
2018-07-06T10:19:54.016Z,56
2018-07-06T10:24:53.803Z,56
2018-07-06T10:29:53.533Z,56
2018-07-06T10:34:53.356Z,53
2018-07-06T10:39:54.315Z,53
2018-07-06T10:44:54.166Z,53
2018-07-06T10:49:53.894Z,53
2018-07-06T10:54:53.766Z,53
2018-07-06T10:59:53.441Z,53
2018-07-06T11:04:54.303Z,53
2018-07-06T11:09:53.565Z,53
2018-07-06T11:14:53.335Z,52
2018-07-06T11:19:54.070Z,52
2018-07-06T11:24:53.824Z,49
2018-07-06T11:29:53.554Z,49
2018-07-06T11:34:54.264Z,48
2018-07-06T11:39:53.963Z,48
2018-07-06T11:44:53.991Z,50
2018-07-06T11:49:54.003Z,50
2018-07-06T11:54:53.603Z,50
2018-07-06T11:59:53.443Z,50
2018-07-06T12:04:54.297Z,51
2018-07-06T12:09:53.691Z,51
2018-07-06T12:14:53.598Z,51
2018-07-06T12:19:53.345Z,51
2018-07-06T12:24:54.016Z,49
2018-07-06T12:29:53.723Z,49
2018-07-06T12:34:53.426Z,48
2018-07-06T12:39:53.371Z,48
2018-07-06T12:44:54.218Z,46
2018-07-06T12:49:54.016Z,46
2018-07-06T12:54:53.734Z,46
2018-07-06T12:59:53.420Z,46
2018-07-06T13:04:54.365Z,46
2018-07-06T13:09:54.236Z,46
2018-07-06T13:14:53.911Z,46
2018-07-06T13:19:53.900Z,46
2018-07-06T13:24:53.378Z,45
2018-07-06T13:29:54.218Z,45
2018-07-06T13:34:54.322Z,47
2018-07-06T13:39:54.054Z,47
2018-07-06T13:44:53.778Z,46
2018-07-06T13:49:53.732Z,46
2018-07-06T13:54:53.770Z,48
2018-07-06T13:59:54.412Z,48
2018-07-06T14:04:53.556Z,47
2018-07-06T14:09:54.506Z,47
2018-07-06T14:14:53.875Z,48
2018-07-06T14:19:53.657Z,48
2018-07-06T14:24:53.506Z,48
2018-07-06T14:29:53.815Z,48
2018-07-06T14:34:53.997Z,47
2018-07-06T14:39:53.794Z,47
2018-07-06T14:44:53.643Z,45
2018-07-06T14:49:54.431Z,45
2018-07-06T14:54:54.480Z,48
2018-07-06T14:59:54.363Z,48
2018-07-06T15:04:54.232Z,46
2018-07-06T15:09:54.368Z,46
2018-07-06T15:14:53.980Z,47
2018-07-06T15:19:53.737Z,47
2018-07-06T15:24:54.364Z,43
2018-07-06T15:29:53.977Z,43
2018-07-06T15:34:53.698Z,44
2018-07-06T15:39:54.364Z,44
2018-07-06T15:44:53.985Z,44
2018-07-06T15:49:53.703Z,44
2018-07-06T15:54:54.541Z,42
2018-07-06T15:59:54.242Z,42
2018-07-06T16:04:54.383Z,45
2018-07-06T16:09:54.283Z,45
2018-07-06T16:14:53.881Z,44
2018-07-06T16:19:53.686Z,44
2018-07-06T16:24:54.605Z,46
2018-07-06T16:29:54.394Z,46
2018-07-06T16:34:54.236Z,47
2018-07-06T16:39:54.034Z,47
2018-07-06T16:44:53.823Z,47
2018-07-06T16:49:54.668Z,47
2018-07-06T16:54:54.212Z,49
2018-07-06T16:59:54.023Z,49
2018-07-06T17:04:53.835Z,51
2018-07-06T17:09:53.965Z,51
2018-07-06T17:14:53.708Z,54
2018-07-06T17:19:54.344Z,54
2018-07-06T17:24:54.048Z,55
2018-07-06T17:29:53.769Z,55
2018-07-06T17:34:54.569Z,56
2018-07-06T17:39:54.207Z,56
2018-07-06T17:44:53.903Z,59
2018-07-06T17:49:54.663Z,59
2018-07-06T17:54:54.321Z,60
2018-07-06T17:59:53.913Z,60
2018-07-06T18:04:54.854Z,61
2018-07-06T18:09:54.504Z,61
2018-07-06T18:14:53.898Z,62
2018-07-06T18:19:54.534Z,62
2018-07-06T18:24:54.147Z,62
2018-07-06T18:29:54.756Z,62
2018-07-06T18:34:54.641Z,64
2018-07-06T18:39:54.410Z,64
2018-07-06T18:44:54.066Z,65
2018-07-06T18:49:53.905Z,65
2018-07-06T18:54:54.595Z,67
2018-07-06T18:59:54.249Z,67
2018-07-06T19:04:54.413Z,68
2018-07-06T19:09:54.615Z,68
2018-07-06T19:14:54.196Z,69
2018-07-06T19:19:53.958Z,69
2018-07-06T19:24:54.649Z,70
2018-07-06T19:29:54.348Z,70
2018-07-06T19:34:53.930Z,72
2018-07-06T19:39:54.830Z,72
2018-07-06T19:44:54.630Z,73
2018-07-06T19:49:54.336Z,73
2018-07-06T19:54:54.050Z,74
2018-07-06T19:59:54.744Z,74
2018-07-06T20:04:54.550Z,75
2018-07-06T20:09:54.253Z,75
2018-07-06T20:14:54.163Z,76
2018-07-06T20:19:54.858Z,76
2018-07-06T20:24:54.522Z,76
2018-07-06T20:29:54.274Z,76
2018-07-06T20:34:53.993Z,77
2018-07-06T20:39:54.639Z,77
2018-07-06T20:44:54.313Z,78
2018-07-06T20:49:54.025Z,78
2018-07-06T20:54:53.937Z,79
2018-07-06T20:59:54.629Z,79
2018-07-06T21:04:54.497Z,79
2018-07-06T21:09:54.320Z,79
2018-07-06T21:14:54.561Z,80
2018-07-06T21:19:54.314Z,80
2018-07-06T21:24:54.023Z,80
2018-07-06T21:29:54.595Z,80
2018-07-06T21:34:54.839Z,81
2018-07-06T21:39:54.570Z,81
2018-07-06T21:44:54.294Z,82
2018-07-06T21:49:54.070Z,82
2018-07-06T21:54:54.043Z,82
2018-07-06T21:59:54.787Z,82
2018-07-06T22:04:55.097Z,82
2018-07-06T22:09:55.026Z,82
2018-07-06T22:14:54.701Z,83
2018-07-06T22:19:54.539Z,83
2018-07-06T22:24:54.281Z,83
2018-07-06T22:29:54.064Z,83
2018-07-06T22:34:54.742Z,84
2018-07-06T22:39:54.425Z,84
2018-07-06T22:44:54.063Z,85
2018-07-06T22:49:54.919Z,85
2018-07-06T22:54:54.631Z,85
2018-07-06T22:59:54.301Z,85
2018-07-06T23:04:54.989Z,86
2018-07-06T23:09:54.689Z,86
2018-07-06T23:14:54.485Z,86
2018-07-06T23:19:54.104Z,86
2018-07-06T23:24:55.094Z,86
2018-07-06T23:29:54.663Z,86
2018-07-06T23:34:54.357Z,86
2018-07-06T23:39:55.108Z,86
2018-07-06T23:44:54.780Z,86
2018-07-06T23:49:54.623Z,86
2018-07-06T23:54:54.864Z,87
2018-07-06T23:59:54.172Z,87
